createdAt,value
2017-11-13T00:01:53.129Z,64.70
2017-11-13T00:04:21.205Z,64.40
2017-11-13T00:06:49.271Z,64.40
2017-11-13T00:09:17.344Z,64.00
2017-11-13T00:11:45.417Z,64.00
2017-11-13T00:14:13.492Z,64.00
2017-11-13T00:16:41.568Z,64.30
2017-11-13T00:19:09.648Z,63.20
2017-11-13T00:21:37.721Z,63.20
2017-11-13T00:24:05.808Z,63.40
2017-11-13T00:26:33.879Z,63.40
2017-11-13T00:29:01.953Z,63.10
2017-11-13T00:31:30.028Z,63.00
2017-11-13T00:33:58.864Z,62.40
2017-11-13T00:36:27.704Z,62.50
2017-11-13T00:38:55.773Z,62.50
2017-11-13T00:41:23.849Z,62.20
2017-11-13T00:43:51.916Z,62.00
2017-11-13T00:46:20.021Z,62.60
2017-11-13T00:48:48.100Z,63.20
2017-11-13T00:51:16.194Z,62.90
2017-11-13T00:53:44.253Z,63.30
2017-11-13T00:56:12.344Z,63.10
2017-11-13T00:58:40.441Z,63.40
2017-11-13T01:01:08.516Z,63.20
2017-11-13T01:03:36.588Z,63.20
2017-11-13T01:06:04.673Z,62.90
2017-11-13T01:08:32.746Z,62.80
2017-11-13T01:11:01.602Z,62.10
2017-11-13T01:13:29.677Z,62.10
2017-11-13T01:15:57.752Z,62.20
2017-11-13T01:18:25.817Z,62.10
2017-11-13T01:20:53.891Z,62.10
2017-11-13T01:23:21.965Z,62.10
2017-11-13T01:25:50.036Z,62.60
2017-11-13T01:28:18.108Z,62.10
2017-11-13T01:30:46.191Z,62.10
2017-11-13T01:33:14.270Z,62.10
2017-11-13T01:35:42.402Z,62.20
2017-11-13T01:38:10.468Z,62.20
2017-11-13T01:40:38.552Z,62.20
2017-11-13T01:43:07.401Z,62.20
2017-11-13T01:45:36.249Z,62.30
2017-11-13T01:48:04.325Z,62.20
2017-11-13T01:50:32.401Z,62.20
2017-11-13T01:53:00.476Z,62.30
2017-11-13T01:55:28.553Z,62.30
2017-11-13T01:57:56.624Z,62.30
2017-11-13T02:00:24.701Z,62.30
2017-11-13T02:02:52.769Z,62.30
2017-11-13T02:05:20.981Z,62.30
2017-11-13T02:07:49.821Z,62.30
2017-11-13T02:10:17.902Z,62.90
2017-11-13T02:12:45.988Z,62.30
2017-11-13T02:15:14.069Z,62.20
2017-11-13T02:17:42.145Z,63.10
2017-11-13T02:20:11.005Z,62.80
2017-11-13T02:22:39.081Z,62.70
2017-11-13T02:25:07.198Z,62.60
2017-11-13T02:27:36.065Z,62.30
2017-11-13T02:30:04.140Z,62.20
2017-11-13T02:32:32.209Z,62.80
2017-11-13T02:35:00.282Z,63.50
2017-11-13T02:37:28.352Z,63.30
2017-11-13T02:39:56.516Z,62.40
2017-11-13T02:42:24.601Z,62.30
2017-11-13T02:44:52.673Z,63.00
2017-11-13T02:47:20.744Z,64.60
2017-11-13T02:49:48.830Z,64.20
2017-11-13T02:52:17.670Z,64.80
2017-11-13T02:54:45.752Z,64.70
2017-11-13T02:57:13.825Z,64.70
2017-11-13T02:59:41.900Z,64.80
2017-11-13T03:02:09.970Z,64.80
2017-11-13T03:04:38.068Z,65.00
2017-11-13T03:07:06.140Z,65.20
2017-11-13T03:09:34.214Z,66.00
2017-11-13T03:12:02.286Z,65.50
2017-11-13T03:14:30.357Z,65.00
2017-11-13T03:16:58.431Z,64.30
2017-11-13T03:19:26.506Z,63.40
2017-11-13T03:21:55.370Z,62.40
2017-11-13T03:24:23.441Z,62.40
2017-11-13T03:26:51.520Z,62.40
2017-11-13T03:29:19.616Z,62.30
2017-11-13T03:31:48.468Z,62.30
2017-11-13T03:34:16.548Z,62.30
2017-11-13T03:36:44.649Z,62.30
2017-11-13T03:39:13.484Z,58.20
2017-11-13T03:41:42.312Z,59.00
2017-11-13T03:44:10.402Z,59.00
2017-11-13T03:46:39.245Z,59.30
2017-11-13T03:49:08.084Z,59.80
2017-11-13T03:51:36.929Z,60.20
2017-11-13T03:54:05.004Z,60.10
2017-11-13T03:56:33.072Z,60.30
2017-11-13T03:59:01.157Z,60.80
2017-11-13T04:01:29.228Z,60.30
2017-11-13T04:03:57.305Z,62.20
2017-11-13T04:06:25.377Z,60.80
2017-11-13T04:08:53.460Z,60.80
2017-11-13T04:11:21.529Z,61.30
2017-11-13T04:13:49.842Z,61.60
2017-11-13T04:16:18.680Z,60.70
2017-11-13T04:18:46.761Z,60.60
2017-11-13T04:21:14.828Z,61.20
2017-11-13T04:23:42.899Z,61.70
2017-11-13T04:26:10.980Z,61.70
2017-11-13T04:28:39.044Z,61.80
2017-11-13T04:31:07.131Z,61.40
2017-11-13T04:33:35.204Z,62.20
2017-11-13T04:36:03.288Z,62.30
2017-11-13T04:38:31.365Z,62.30
2017-11-13T04:41:00.211Z,62.30
2017-11-13T04:43:28.286Z,62.30
2017-11-13T04:45:56.369Z,62.80
2017-11-13T04:48:24.441Z,63.70
2017-11-13T04:50:52.512Z,63.30
2017-11-13T04:53:20.589Z,62.50
2017-11-13T04:55:48.656Z,63.00
2017-11-13T04:58:16.741Z,62.50
2017-11-13T05:00:44.812Z,61.50
2017-11-13T05:03:12.898Z,60.70
2017-11-13T05:05:40.965Z,61.00
2017-11-13T05:08:09.047Z,61.40
2017-11-13T05:10:37.118Z,61.50
2017-11-13T05:13:05.189Z,61.70
2017-11-13T05:15:33.262Z,61.90
2017-11-13T05:18:02.136Z,63.50
2017-11-13T05:20:30.216Z,63.40
2017-11-13T05:22:58.280Z,62.50
2017-11-13T05:25:26.357Z,62.30
2017-11-13T05:27:54.441Z,61.80
2017-11-13T05:30:22.526Z,62.80
2017-11-13T05:32:51.370Z,62.40
2017-11-13T05:35:19.666Z,62.40
2017-11-13T05:37:47.736Z,62.40
2017-11-13T05:40:15.812Z,62.90
2017-11-13T05:42:43.888Z,64.50
2017-11-13T05:45:11.974Z,64.00
2017-11-13T05:47:40.809Z,63.80
2017-11-13T05:50:09.668Z,63.20
2017-11-13T05:52:38.528Z,63.90
2017-11-13T05:55:06.605Z,63.90
2017-11-13T05:57:34.685Z,63.50
2017-11-13T06:00:02.748Z,63.70
2017-11-13T06:02:30.829Z,64.50
2017-11-13T06:04:58.893Z,64.40
2017-11-13T06:07:26.973Z,64.80
2017-11-13T06:09:55.038Z,65.90
2017-11-13T06:12:23.172Z,65.40
2017-11-13T06:14:51.246Z,65.60
2017-11-13T06:17:19.345Z,66.00
2017-11-13T06:19:47.406Z,66.20
2017-11-13T06:22:15.479Z,66.30
2017-11-13T06:24:43.681Z,66.50
2017-11-13T06:27:11.753Z,66.20
2017-11-13T06:29:39.884Z,65.70
2017-11-13T06:32:07.963Z,66.20
2017-11-13T06:34:36.046Z,66.20
2017-11-13T06:37:04.116Z,66.40
2017-11-13T06:39:32.206Z,66.30
2017-11-13T06:42:00.294Z,66.30
2017-11-13T06:44:29.149Z,65.80
2017-11-13T06:46:57.229Z,65.60
2017-11-13T06:49:25.313Z,64.70
2017-11-13T06:51:53.408Z,64.20
2017-11-13T06:54:22.241Z,63.00
2017-11-13T06:56:50.327Z,62.90
2017-11-13T06:59:18.409Z,62.20
2017-11-13T07:01:46.480Z,60.50
2017-11-13T07:04:14.553Z,60.80
2017-11-13T07:06:42.647Z,61.10
2017-11-13T07:09:11.500Z,58.10
2017-11-13T07:11:40.341Z,58.10
2017-11-13T07:14:09.179Z,58.80
2017-11-13T07:16:37.270Z,58.80
2017-11-13T07:19:05.341Z,59.60
2017-11-13T07:21:33.434Z,58.40
2017-11-13T07:24:01.507Z,58.80
2017-11-13T07:26:29.581Z,60.10
2017-11-13T07:28:57.662Z,60.00
2017-11-13T07:31:26.510Z,60.80
2017-11-13T07:33:54.588Z,60.80
2017-11-13T07:36:22.661Z,61.30
2017-11-13T07:38:53.665Z,61.40
2017-11-13T07:41:21.743Z,59.00
2017-11-13T07:43:49.860Z,58.40
2017-11-13T07:46:17.928Z,57.70
2017-11-13T07:48:46.017Z,56.30
2017-11-13T07:51:14.079Z,57.20
2017-11-13T07:53:42.163Z,57.60
2017-11-13T07:56:10.232Z,57.40
2017-11-13T07:58:38.333Z,58.30
2017-11-13T08:01:06.402Z,58.60
2017-11-13T08:03:35.240Z,57.00
2017-11-13T08:06:03.316Z,57.00
2017-11-13T08:08:31.395Z,57.90
2017-11-13T08:10:59.556Z,57.80
2017-11-13T08:13:28.157Z,57.70
2017-11-13T08:15:56.245Z,58.20
2017-11-13T08:18:24.314Z,56.10
2017-11-13T08:20:52.421Z,54.50
2017-11-13T08:23:21.234Z,55.00
2017-11-13T08:25:49.299Z,55.00
2017-11-13T08:28:18.153Z,55.80
2017-11-13T08:30:47.007Z,54.60
2017-11-13T08:33:15.113Z,54.60
2017-11-13T08:35:43.970Z,53.20
2017-11-13T08:38:12.069Z,53.10
2017-11-13T08:40:40.168Z,52.10
2017-11-13T08:43:09.005Z,51.90
2017-11-13T08:45:37.085Z,51.90
2017-11-13T08:48:05.160Z,50.10
2017-11-13T08:50:33.226Z,50.40
2017-11-13T08:53:01.294Z,50.70
2017-11-13T08:55:29.370Z,49.30
2017-11-13T08:57:57.457Z,50.50
2017-11-13T09:00:25.540Z,50.00
2017-11-13T09:02:54.401Z,51.10
2017-11-13T09:05:23.084Z,51.10
2017-11-13T09:07:51.181Z,50.10
2017-11-13T09:10:19.250Z,49.30
2017-11-13T09:12:47.328Z,50.30
2017-11-13T09:15:15.397Z,48.80
2017-11-13T09:17:43.463Z,49.70
2017-11-13T09:20:11.549Z,48.50
2017-11-13T09:22:39.624Z,49.10
2017-11-13T09:25:07.680Z,49.70
2017-11-13T09:27:35.764Z,48.30
2017-11-13T09:30:04.615Z,49.00
2017-11-13T09:32:32.697Z,49.00
2017-11-13T09:35:00.785Z,48.90
2017-11-13T09:37:28.852Z,49.30
2017-11-13T09:39:56.944Z,49.10
2017-11-13T09:42:25.986Z,49.30
2017-11-13T09:44:54.058Z,49.30
2017-11-13T09:47:22.161Z,49.40
2017-11-13T09:49:50.292Z,47.70
2017-11-13T09:52:18.361Z,47.30
2017-11-13T09:54:46.426Z,46.70
2017-11-13T09:57:14.506Z,47.70
2017-11-13T09:59:42.601Z,48.80
2017-11-13T10:02:11.449Z,46.70
2017-11-13T10:04:40.297Z,46.70
2017-11-13T10:07:08.386Z,46.70
2017-11-13T10:09:36.444Z,47.10
2017-11-13T10:12:04.521Z,46.70
2017-11-13T10:14:32.596Z,46.70
2017-11-13T10:17:00.677Z,46.70
2017-11-13T10:19:28.760Z,47.10
2017-11-13T10:21:56.832Z,46.70
2017-11-13T10:24:25.672Z,46.80
2017-11-13T10:26:53.756Z,46.80
2017-11-13T10:29:21.825Z,45.80
2017-11-13T10:31:50.648Z,47.00
2017-11-13T10:34:18.724Z,47.00
2017-11-13T10:36:46.788Z,45.90
2017-11-13T10:39:14.886Z,44.10
2017-11-13T10:41:43.749Z,44.70
2017-11-13T10:44:11.817Z,44.70
2017-11-13T10:46:39.893Z,45.00
2017-11-13T10:49:08.114Z,46.10
2017-11-13T10:51:36.973Z,45.40
2017-11-13T10:54:05.749Z,45.40
2017-11-13T10:56:33.828Z,45.50
2017-11-13T10:59:01.893Z,47.00
2017-11-13T11:01:29.978Z,45.40
2017-11-13T11:03:58.042Z,46.20
2017-11-13T11:06:26.125Z,45.40
2017-11-13T11:08:55.093Z,45.30
2017-11-13T11:11:23.241Z,45.30
2017-11-13T11:13:51.618Z,46.10
2017-11-13T11:16:33.823Z,46.10
2017-11-13T11:19:01.891Z,46.00
2017-11-13T11:21:30.484Z,46.30
2017-11-13T11:23:58.553Z,47.20
2017-11-13T11:26:29.999Z,47.20
2017-11-13T11:29:08.062Z,48.30
2017-11-13T11:31:39.672Z,49.10
2017-11-13T11:34:08.213Z,49.00
2017-11-13T11:36:50.807Z,50.50
2017-11-13T11:39:18.876Z,50.50
2017-11-13T11:41:46.946Z,49.90
2017-11-13T11:44:27.119Z,50.70
2017-11-13T11:46:55.961Z,49.50
2017-11-13T11:49:24.038Z,49.40
2017-11-13T11:51:52.118Z,49.80
2017-11-13T11:54:21.116Z,47.60
2017-11-13T11:57:04.060Z,47.80
2017-11-13T11:59:32.895Z,45.00
2017-11-13T12:02:00.980Z,44.90
2017-11-13T12:04:29.064Z,46.00
2017-11-13T12:06:57.142Z,45.40
2017-11-13T12:09:25.222Z,45.20
2017-11-13T12:11:53.505Z,42.80
2017-11-13T12:14:21.584Z,42.80
2017-11-13T12:16:49.716Z,42.50
2017-11-13T12:19:17.801Z,44.90
2017-11-13T12:21:45.872Z,41.30
2017-11-13T12:24:13.945Z,43.10
2017-11-13T12:26:42.023Z,42.40
2017-11-13T12:29:10.097Z,41.90
2017-11-13T12:31:38.164Z,41.70
2017-11-13T12:34:06.232Z,39.30
2017-11-13T12:36:34.306Z,39.50
2017-11-13T12:39:02.504Z,40.10
2017-11-13T12:41:30.573Z,39.10
2017-11-13T12:43:58.671Z,38.90
2017-11-13T12:46:27.518Z,38.90
2017-11-13T12:48:55.588Z,39.00
2017-11-13T12:51:24.348Z,41.60
2017-11-13T12:53:52.440Z,41.80
2017-11-13T12:56:20.521Z,42.80
2017-11-13T12:58:59.503Z,39.70
2017-11-13T13:01:27.577Z,40.20
2017-11-13T13:03:56.434Z,42.00
2017-11-13T13:06:24.917Z,41.90
2017-11-13T13:08:52.989Z,40.20
2017-11-13T13:11:21.066Z,41.60
2017-11-13T13:13:49.179Z,40.70
2017-11-13T13:16:17.285Z,41.00
2017-11-13T13:18:45.353Z,39.90
2017-11-13T13:21:14.265Z,38.70
2017-11-13T13:23:42.356Z,39.30
2017-11-13T13:26:12.381Z,38.70
2017-11-13T13:28:41.996Z,39.00
2017-11-13T13:31:10.833Z,38.80
2017-11-13T13:33:39.025Z,38.80
2017-11-13T13:36:07.135Z,38.00
2017-11-13T13:38:35.211Z,38.90
2017-11-13T13:41:04.253Z,37.20
2017-11-13T13:43:32.333Z,37.20
2017-11-13T13:46:00.393Z,39.70
2017-11-13T13:48:28.465Z,37.00
2017-11-13T13:50:56.536Z,38.70
2017-11-13T13:53:24.613Z,38.30
2017-11-13T13:55:52.685Z,39.20
2017-11-13T13:58:20.765Z,38.60
2017-11-13T14:00:48.828Z,40.90
2017-11-13T14:03:16.898Z,34.50
2017-11-13T14:05:44.973Z,35.60
2017-11-13T14:08:13.852Z,35.50
2017-11-13T14:10:41.928Z,34.60
2017-11-13T14:13:10.027Z,36.00
2017-11-13T14:15:48.064Z,34.70
2017-11-13T14:18:16.924Z,34.10
2017-11-13T14:20:44.997Z,34.20
2017-11-13T14:23:13.065Z,34.90
2017-11-13T14:25:41.179Z,34.40
2017-11-13T14:28:09.294Z,33.30
2017-11-13T14:30:37.381Z,33.40
2017-11-13T14:33:05.458Z,31.50
2017-11-13T14:35:33.543Z,32.70
2017-11-13T14:38:01.613Z,33.50
2017-11-13T14:40:29.749Z,34.20
2017-11-13T14:42:57.815Z,33.10
2017-11-13T14:45:25.900Z,33.70
2017-11-13T14:47:54.050Z,33.60
2017-11-13T14:50:22.133Z,35.00
2017-11-13T14:52:50.205Z,32.80
2017-11-13T14:55:19.108Z,34.60
2017-11-13T14:57:47.219Z,34.50
2017-11-13T15:00:15.260Z,34.70
2017-11-13T15:02:43.413Z,35.50
2017-11-13T15:05:12.232Z,34.50
2017-11-13T15:07:40.313Z,34.50
2017-11-13T15:10:08.381Z,33.50
2017-11-13T15:12:36.483Z,33.80
2017-11-13T15:15:05.316Z,32.80
2017-11-13T15:17:33.384Z,32.70
2017-11-13T15:20:01.458Z,32.60
2017-11-13T15:22:29.556Z,32.90
2017-11-13T15:24:57.629Z,33.30
2017-11-13T15:27:25.701Z,33.20
2017-11-13T15:29:53.793Z,33.70
2017-11-13T15:32:21.856Z,33.70
2017-11-13T15:34:49.936Z,33.00
2017-11-13T15:37:18.835Z,34.90
2017-11-13T15:39:47.673Z,34.90
2017-11-13T15:42:15.731Z,34.80
2017-11-13T15:44:43.822Z,35.20
2017-11-13T15:47:11.992Z,36.50
2017-11-13T15:49:40.063Z,35.70
2017-11-13T15:52:08.149Z,36.20
2017-11-13T15:54:36.302Z,36.60
2017-11-13T15:57:05.200Z,37.50
2017-11-13T15:59:33.299Z,37.40
2017-11-13T16:02:01.380Z,37.40
2017-11-13T16:04:29.440Z,38.10
2017-11-13T16:06:57.538Z,38.10
2017-11-13T16:09:26.367Z,38.70
2017-11-13T16:11:55.221Z,38.60
2017-11-13T16:14:24.065Z,39.00
2017-11-13T16:16:52.140Z,38.90
2017-11-13T16:19:20.215Z,38.00
2017-11-13T16:21:48.415Z,39.00
2017-11-13T16:24:16.483Z,39.80
2017-11-13T16:26:44.556Z,39.80
2017-11-13T16:29:12.628Z,41.70
2017-11-13T16:31:40.779Z,40.10
2017-11-13T16:34:09.664Z,39.70
2017-11-13T16:36:37.754Z,39.60
2017-11-13T16:39:05.847Z,39.50
2017-11-13T16:41:33.916Z,40.80
2017-11-13T16:44:01.993Z,40.90
2017-11-13T16:46:30.833Z,40.20
2017-11-13T16:48:59.676Z,40.60
2017-11-13T16:51:28.617Z,41.70
2017-11-13T16:53:56.704Z,41.60
2017-11-13T16:56:24.776Z,41.70
2017-11-13T16:58:52.912Z,41.50
2017-11-13T17:01:20.972Z,41.70
2017-11-13T17:03:49.818Z,42.00
2017-11-13T17:06:17.889Z,41.90
2017-11-13T17:08:45.976Z,41.50
2017-11-13T17:11:14.064Z,41.50
2017-11-13T17:13:42.180Z,41.90
2017-11-13T17:16:10.253Z,40.90
2017-11-13T17:18:38.324Z,41.40
2017-11-13T17:21:06.413Z,42.00
2017-11-13T17:23:34.494Z,41.20
2017-11-13T17:26:02.592Z,41.70
2017-11-13T17:28:30.668Z,42.80
2017-11-13T17:30:58.740Z,42.80
2017-11-13T17:33:26.814Z,43.30
2017-11-13T17:35:54.884Z,43.60
2017-11-13T17:38:22.957Z,43.80
2017-11-13T17:40:51.027Z,44.00
2017-11-13T17:43:19.101Z,44.40
2017-11-13T17:45:48.184Z,43.90
2017-11-13T17:48:16.254Z,44.30
2017-11-13T17:50:44.329Z,44.70
2017-11-13T17:53:12.401Z,44.50
2017-11-13T17:55:40.469Z,43.80
2017-11-13T17:58:08.545Z,44.00
2017-11-13T18:00:36.617Z,43.90
2017-11-13T18:03:04.700Z,44.50
2017-11-13T18:05:32.760Z,45.50
2017-11-13T18:08:00.835Z,45.20
2017-11-13T18:10:28.913Z,45.20
2017-11-13T18:12:56.980Z,46.10
2017-11-13T18:15:25.053Z,46.40
2017-11-13T18:17:53.148Z,47.40
2017-11-13T18:20:21.988Z,47.80
2017-11-13T18:22:50.052Z,47.80
2017-11-13T18:25:18.164Z,47.40
2017-11-13T18:27:46.224Z,48.00
2017-11-13T18:30:14.295Z,47.70
2017-11-13T18:32:42.374Z,47.70
2017-11-13T18:35:10.455Z,48.00
2017-11-13T18:37:38.560Z,47.00
2017-11-13T18:40:06.641Z,47.00
2017-11-13T18:42:34.704Z,46.70
2017-11-13T18:45:02.817Z,46.50
2017-11-13T18:47:30.888Z,46.40
2017-11-13T18:49:58.964Z,46.40
2017-11-13T18:52:27.036Z,46.20
2017-11-13T18:54:55.100Z,46.10
2017-11-13T18:57:23.181Z,45.70
2017-11-13T18:59:51.253Z,45.70
2017-11-13T19:02:19.333Z,44.90
2017-11-13T19:04:47.403Z,44.80
2017-11-13T19:07:15.492Z,45.70
2017-11-13T19:09:43.564Z,47.20
2017-11-13T19:12:11.801Z,47.00
2017-11-13T19:14:39.878Z,48.90
2017-11-13T19:17:07.944Z,49.60
2017-11-13T19:19:36.788Z,49.40
2017-11-13T19:22:05.649Z,49.30
2017-11-13T19:24:33.765Z,49.20
2017-11-13T19:27:01.837Z,47.60
2017-11-13T19:29:29.916Z,48.80
2017-11-13T19:31:57.998Z,48.20
2017-11-13T19:34:26.100Z,48.70
2017-11-13T19:36:54.168Z,48.60
2017-11-13T19:39:22.253Z,48.10
2017-11-13T19:41:50.341Z,47.80
2017-11-13T19:44:18.412Z,47.20
2017-11-13T19:46:46.498Z,46.80
2017-11-13T19:49:15.332Z,49.60
2017-11-13T19:51:43.399Z,49.60
2017-11-13T19:54:11.455Z,49.60
2017-11-13T19:56:39.543Z,48.70
2017-11-13T19:59:07.619Z,49.80
2017-11-13T20:01:36.482Z,49.30
2017-11-13T20:04:05.326Z,49.80
2017-11-13T20:06:33.397Z,49.70
2017-11-13T20:09:01.481Z,50.00
2017-11-13T20:11:30.471Z,49.70
2017-11-13T20:13:58.560Z,50.20
2017-11-13T20:16:26.615Z,50.60
2017-11-13T20:18:54.690Z,49.80
2017-11-13T20:21:22.751Z,51.60
2017-11-13T20:23:50.832Z,51.00
2017-11-13T20:26:18.917Z,52.30
2017-11-13T20:28:47.014Z,52.30
2017-11-13T20:31:15.856Z,50.80
2017-11-13T20:33:43.952Z,50.80
2017-11-13T20:36:12.018Z,52.10
2017-11-13T20:38:40.091Z,52.20
2017-11-13T20:41:08.169Z,50.90
2017-11-13T20:43:36.241Z,52.10
2017-11-13T20:46:04.321Z,53.50
2017-11-13T20:48:32.383Z,53.90
2017-11-13T20:51:00.461Z,54.00
2017-11-13T20:53:28.545Z,52.10
2017-11-13T20:55:57.384Z,53.40
2017-11-13T20:58:25.465Z,52.60
2017-11-13T21:00:53.536Z,52.10
2017-11-13T21:03:21.636Z,52.20
2017-11-13T21:05:49.695Z,52.00
2017-11-13T21:08:17.772Z,52.00
2017-11-13T21:10:45.856Z,52.00
2017-11-13T21:13:13.927Z,52.10
2017-11-13T21:15:41.992Z,51.90
2017-11-13T21:18:10.068Z,53.20
2017-11-13T21:20:38.140Z,53.90
2017-11-13T21:23:06.216Z,54.10
2017-11-13T21:25:34.292Z,54.30
2017-11-13T21:28:02.384Z,51.80
2017-11-13T21:30:31.225Z,54.00
2017-11-13T21:32:59.312Z,54.60
2017-11-13T21:35:28.216Z,54.20
2017-11-13T21:37:57.075Z,54.20
2017-11-13T21:40:25.150Z,54.20
2017-11-13T21:42:53.258Z,54.20
2017-11-13T21:45:22.422Z,54.40
2017-11-13T21:47:50.492Z,54.40
2017-11-13T21:50:18.564Z,52.90
2017-11-13T21:52:46.661Z,54.30
2017-11-13T21:55:14.719Z,54.60
2017-11-13T21:57:42.792Z,55.80
2017-11-13T22:00:10.873Z,55.90
2017-11-13T22:02:38.950Z,55.80
2017-11-13T22:05:07.029Z,55.70
2017-11-13T22:07:35.089Z,56.80
2017-11-13T22:10:03.195Z,54.50
2017-11-13T22:12:31.269Z,56.00
2017-11-13T22:14:59.382Z,54.80
2017-11-13T22:17:27.459Z,54.40
2017-11-13T22:19:55.557Z,55.80
2017-11-13T22:22:23.634Z,55.10
2017-11-13T22:24:51.714Z,54.20
2017-11-13T22:27:20.552Z,53.80
2017-11-13T22:29:48.644Z,53.80
2017-11-13T22:32:16.709Z,53.80
2017-11-13T22:34:44.793Z,54.90
2017-11-13T22:37:12.856Z,54.50
2017-11-13T22:39:40.941Z,55.70
2017-11-13T22:42:09.045Z,55.60
2017-11-13T22:44:37.904Z,55.00
2017-11-13T22:47:05.977Z,55.00
2017-11-13T22:49:35.043Z,55.10
2017-11-13T22:52:03.129Z,55.50
2017-11-13T22:54:31.201Z,54.80
2017-11-13T22:57:00.176Z,53.30
2017-11-13T22:59:28.244Z,52.90
2017-11-13T23:01:56.377Z,53.50
2017-11-13T23:04:25.123Z,53.90
2017-11-13T23:06:53.200Z,52.20
2017-11-13T23:09:21.264Z,51.60
2017-11-13T23:11:49.567Z,53.80
2017-11-13T23:14:17.639Z,53.80
2017-11-13T23:16:45.712Z,53.50
2017-11-13T23:19:13.793Z,56.30
2017-11-13T23:21:41.863Z,55.60
2017-11-13T23:24:09.940Z,57.30
2017-11-13T23:26:38.013Z,56.80
2017-11-13T23:29:06.117Z,56.10
2017-11-13T23:31:34.176Z,56.90
2017-11-13T23:34:03.038Z,56.10
2017-11-13T23:36:31.105Z,56.10
2017-11-13T23:38:59.189Z,55.40
2017-11-13T23:41:27.268Z,57.50
2017-11-13T23:43:56.144Z,57.10
2017-11-13T23:46:24.244Z,56.50
2017-11-13T23:48:53.081Z,55.50
2017-11-13T23:51:21.160Z,55.50
2017-11-13T23:53:49.233Z,55.20
2017-11-13T23:56:17.322Z,54.40
2017-11-13T23:58:45.389Z,55.80
